sensor_id;sensor_type;location;lat;lon;timestamp;temperature;humidity
22145;DHT22;11238;48.730;11.566;2023-02-17T00:02:08;3.60;99.90
22145;DHT22;11238;48.730;11.566;2023-02-17T00:04:34;3.60;99.90
22145;DHT22;11238;48.730;11.566;2023-02-17T00:07:00;3.70;99.90
22145;DHT22;11238;48.730;11.566;2023-02-17T00:09:26;3.80;99.90
22145;DHT22;11238;48.730;11.566;2023-02-17T00:11:52;3.80;99.90
22145;DHT22;11238;48.730;11.566;2023-02-17T00:14:18;3.80;99.90
22145;DHT22;11238;48.730;11.566;2023-02-17T00:16:44;3.80;99.90
22145;DHT22;11238;48.730;11.566;2023-02-17T00:19:11;3.80;99.90
22145;DHT22;11238;48.730;11.566;2023-02-17T00:21:54;3.90;99.90
22145;DHT22;11238;48.730;11.566;2023-02-17T00:24:43;3.70;99.90
22145;DHT22;11238;48.730;11.566;2023-02-17T00:27:09;3.60;99.90
22145;DHT22;11238;48.730;11.566;2023-02-17T00:29:35;3.60;99.90
22145;DHT22;11238;48.730;11.566;2023-02-17T00:32:01;3.60;99.90
22145;DHT22;11238;48.730;11.566;2023-02-17T00:34:27;3.60;99.90
22145;DHT22;11238;48.730;11.566;2023-02-17T00:36:53;3.50;99.90
22145;DHT22;11238;48.730;11.566;2023-02-17T00:39:19;3.50;99.90
22145;DHT22;11238;48.730;11.566;2023-02-17T00:41:48;3.50;99.90
22145;DHT22;11238;48.730;11.566;2023-02-17T00:44:16;3.50;99.90
22145;DHT22;11238;48.730;11.566;2023-02-17T00:46:43;3.50;99.90
22145;DHT22;11238;48.730;11.566;2023-02-17T00:49:18;3.50;99.90
22145;DHT22;11238;48.730;11.566;2023-02-17T00:51:45;3.40;99.90
22145;DHT22;11238;48.730;11.566;2023-02-17T00:54:12;3.30;99.90
22145;DHT22;11238;48.730;11.566;2023-02-17T00:56:38;3.40;99.90
22145;DHT22;11238;48.730;11.566;2023-02-17T00:59:04;3.40;99.90
22145;DHT22;11238;48.730;11.566;2023-02-17T01:01:31;3.40;99.90
22145;DHT22;11238;48.730;11.566;2023-02-17T01:03:57;3.50;99.90
22145;DHT22;11238;48.730;11.566;2023-02-17T01:06:26;3.40;99.90
22145;DHT22;11238;48.730;11.566;2023-02-17T01:08:53;3.40;99.90
22145;DHT22;11238;48.730;11.566;2023-02-17T01:11:21;3.50;99.90
22145;DHT22;11238;48.730;11.566;2023-02-17T01:13:47;3.50;99.90
22145;DHT22;11238;48.730;11.566;2023-02-17T01:16:34;3.50;99.90
22145;DHT22;11238;48.730;11.566;2023-02-17T01:19:02;3.50;99.90
22145;DHT22;11238;48.730;11.566;2023-02-17T01:21:29;3.50;99.90
22145;DHT22;11238;48.730;11.566;2023-02-17T01:23:57;3.50;99.90
22145;DHT22;11238;48.730;11.566;2023-02-17T01:26:25;3.50;99.90
22145;DHT22;11238;48.730;11.566;2023-02-17T01:28:52;3.50;99.90
22145;DHT22;11238;48.730;11.566;2023-02-17T01:31:19;3.50;99.90
22145;DHT22;11238;48.730;11.566;2023-02-17T01:33:46;3.50;99.90
22145;DHT22;11238;48.730;11.566;2023-02-17T01:36:14;3.50;99.90
22145;DHT22;11238;48.730;11.566;2023-02-17T01:38:41;3.50;99.90
22145;DHT22;11238;48.730;11.566;2023-02-17T01:41:08;3.50;99.90
22145;DHT22;11238;48.730;11.566;2023-02-17T01:43:35;3.50;99.90
22145;DHT22;11238;48.730;11.566;2023-02-17T01:46:03;3.50;99.90
22145;DHT22;11238;48.730;11.566;2023-02-17T01:48:48;3.50;99.90
22145;DHT22;11238;48.730;11.566;2023-02-17T01:51:22;3.50;99.90
22145;DHT22;11238;48.730;11.566;2023-02-17T01:54:05;3.60;99.90
22145;DHT22;11238;48.730;11.566;2023-02-17T01:56:33;3.60;99.90
22145;DHT22;11238;48.730;11.566;2023-02-17T01:59:10;3.50;99.90
22145;DHT22;11238;48.730;11.566;2023-02-17T02:01:38;3.50;99.90
22145;DHT22;11238;48.730;11.566;2023-02-17T02:04:05;3.50;99.90
22145;DHT22;11238;48.730;11.566;2023-02-17T02:06:33;3.60;99.90
22145;DHT22;11238;48.730;11.566;2023-02-17T02:09:08;3.60;99.90
22145;DHT22;11238;48.730;11.566;2023-02-17T02:11:35;3.60;99.90
22145;DHT22;11238;48.730;11.566;2023-02-17T02:14:03;3.60;99.90
22145;DHT22;11238;48.730;11.566;2023-02-17T02:20:01;3.60;99.90
22145;DHT22;11238;48.730;11.566;2023-02-17T02:22:45;3.60;99.90
22145;DHT22;11238;48.730;11.566;2023-02-17T02:28:50;3.60;99.90
22145;DHT22;11238;48.730;11.566;2023-02-17T02:34:37;3.60;99.90
22145;DHT22;11238;48.730;11.566;2023-02-17T02:37:12;3.70;99.90
22145;DHT22;11238;48.730;11.566;2023-02-17T02:39:43;3.70;99.90
22145;DHT22;11238;48.730;11.566;2023-02-17T02:42:13;3.70;99.90
22145;DHT22;11238;48.730;11.566;2023-02-17T02:44:41;3.70;99.90
22145;DHT22;11238;48.730;11.566;2023-02-17T02:50:56;3.70;99.90
22145;DHT22;11238;48.730;11.566;2023-02-17T03:01:44;3.70;99.90
22145;DHT22;11238;48.730;11.566;2023-02-17T03:09:51;3.70;99.90
22145;DHT22;11238;48.730;11.566;2023-02-17T03:12:19;3.70;99.90
22145;DHT22;11238;48.730;11.566;2023-02-17T03:14:48;3.70;99.90
22145;DHT22;11238;48.730;11.566;2023-02-17T03:17:16;3.70;99.90
22145;DHT22;11238;48.730;11.566;2023-02-17T03:19:42;3.80;99.90
22145;DHT22;11238;48.730;11.566;2023-02-17T03:22:21;3.80;99.90
22145;DHT22;11238;48.730;11.566;2023-02-17T03:24:48;3.80;99.90
22145;DHT22;11238;48.730;11.566;2023-02-17T03:27:14;3.80;99.90
22145;DHT22;11238;48.730;11.566;2023-02-17T03:29:40;3.80;99.90
22145;DHT22;11238;48.730;11.566;2023-02-17T03:32:06;3.80;99.90
22145;DHT22;11238;48.730;11.566;2023-02-17T03:34:32;3.80;99.90
22145;DHT22;11238;48.730;11.566;2023-02-17T03:36:58;3.80;99.90
22145;DHT22;11238;48.730;11.566;2023-02-17T03:39:24;3.80;99.90
22145;DHT22;11238;48.730;11.566;2023-02-17T03:41:50;3.90;99.90
22145;DHT22;11238;48.730;11.566;2023-02-17T03:44:17;3.90;99.90
22145;DHT22;11238;48.730;11.566;2023-02-17T03:46:43;3.90;99.90
22145;DHT22;11238;48.730;11.566;2023-02-17T03:49:09;3.90;99.90
22145;DHT22;11238;48.730;11.566;2023-02-17T03:51:35;3.90;99.90
22145;DHT22;11238;48.730;11.566;2023-02-17T03:54:01;4.00;99.90
22145;DHT22;11238;48.730;11.566;2023-02-17T03:56:27;4.00;99.90
22145;DHT22;11238;48.730;11.566;2023-02-17T03:58:53;4.00;99.90
22145;DHT22;11238;48.730;11.566;2023-02-17T04:01:19;4.00;99.90
22145;DHT22;11238;48.730;11.566;2023-02-17T04:03:45;4.00;99.90
22145;DHT22;11238;48.730;11.566;2023-02-17T04:06:11;3.90;99.90
22145;DHT22;11238;48.730;11.566;2023-02-17T04:08:37;3.90;99.90
22145;DHT22;11238;48.730;11.566;2023-02-17T04:11:04;3.90;99.90
22145;DHT22;11238;48.730;11.566;2023-02-17T04:13:31;3.90;99.90
22145;DHT22;11238;48.730;11.566;2023-02-17T04:15:57;3.80;99.90
22145;DHT22;11238;48.730;11.566;2023-02-17T04:18:23;3.80;99.90
22145;DHT22;11238;48.730;11.566;2023-02-17T04:20:49;3.90;99.90
22145;DHT22;11238;48.730;11.566;2023-02-17T04:23:16;3.90;99.90
22145;DHT22;11238;48.730;11.566;2023-02-17T04:25:43;4.00;99.90
22145;DHT22;11238;48.730;11.566;2023-02-17T04:28:10;4.00;99.90
22145;DHT22;11238;48.730;11.566;2023-02-17T04:30:36;4.00;99.90
22145;DHT22;11238;48.730;11.566;2023-02-17T04:33:02;4.00;99.90
22145;DHT22;11238;48.730;11.566;2023-02-17T04:35:28;4.00;99.90
22145;DHT22;11238;48.730;11.566;2023-02-17T04:37:54;4.10;99.90
22145;DHT22;11238;48.730;11.566;2023-02-17T04:40:20;4.00;99.90
22145;DHT22;11238;48.730;11.566;2023-02-17T04:42:46;4.00;99.90
22145;DHT22;11238;48.730;11.566;2023-02-17T04:45:12;4.00;99.90
22145;DHT22;11238;48.730;11.566;2023-02-17T04:47:39;4.00;99.90
22145;DHT22;11238;48.730;11.566;2023-02-17T04:50:06;4.10;99.90
22145;DHT22;11238;48.730;11.566;2023-02-17T04:52:33;4.00;99.90
22145;DHT22;11238;48.730;11.566;2023-02-17T04:54:59;4.10;99.90
22145;DHT22;11238;48.730;11.566;2023-02-17T04:57:24;4.10;99.90
22145;DHT22;11238;48.730;11.566;2023-02-17T04:59:50;4.10;99.90
22145;DHT22;11238;48.730;11.566;2023-02-17T05:02:16;4.10;99.90
22145;DHT22;11238;48.730;11.566;2023-02-17T05:04:42;4.20;99.90
22145;DHT22;11238;48.730;11.566;2023-02-17T05:07:08;4.20;99.90
22145;DHT22;11238;48.730;11.566;2023-02-17T05:09:34;4.20;99.90
22145;DHT22;11238;48.730;11.566;2023-02-17T05:11:59;4.20;99.90
22145;DHT22;11238;48.730;11.566;2023-02-17T05:14:28;4.20;99.90
22145;DHT22;11238;48.730;11.566;2023-02-17T05:16:53;4.20;99.90
22145;DHT22;11238;48.730;11.566;2023-02-17T05:19:41;4.30;99.90
22145;DHT22;11238;48.730;11.566;2023-02-17T05:22:07;4.30;99.90
22145;DHT22;11238;48.730;11.566;2023-02-17T05:24:33;4.30;99.90
22145;DHT22;11238;48.730;11.566;2023-02-17T05:27:21;4.30;99.90
22145;DHT22;11238;48.730;11.566;2023-02-17T05:30:09;4.30;99.90
22145;DHT22;11238;48.730;11.566;2023-02-17T05:32:35;4.30;99.90
22145;DHT22;11238;48.730;11.566;2023-02-17T05:35:02;4.30;99.90
22145;DHT22;11238;48.730;11.566;2023-02-17T05:37:28;4.40;99.90
22145;DHT22;11238;48.730;11.566;2023-02-17T05:39:53;4.40;99.90
22145;DHT22;11238;48.730;11.566;2023-02-17T05:42:19;4.40;99.90
22145;DHT22;11238;48.730;11.566;2023-02-17T05:44:45;4.40;99.90
22145;DHT22;11238;48.730;11.566;2023-02-17T05:47:11;4.40;99.90
22145;DHT22;11238;48.730;11.566;2023-02-17T05:49:37;4.40;99.90
22145;DHT22;11238;48.730;11.566;2023-02-17T05:52:03;4.40;99.90
22145;DHT22;11238;48.730;11.566;2023-02-17T05:54:29;4.40;99.90
22145;DHT22;11238;48.730;11.566;2023-02-17T05:56:55;4.40;99.90
22145;DHT22;11238;48.730;11.566;2023-02-17T05:59:21;4.40;99.90
22145;DHT22;11238;48.730;11.566;2023-02-17T06:01:49;4.40;99.90
22145;DHT22;11238;48.730;11.566;2023-02-17T06:04:15;4.40;99.90
22145;DHT22;11238;48.730;11.566;2023-02-17T06:06:41;4.30;99.90
22145;DHT22;11238;48.730;11.566;2023-02-17T06:09:07;4.30;99.90
22145;DHT22;11238;48.730;11.566;2023-02-17T06:11:33;4.30;99.90
22145;DHT22;11238;48.730;11.566;2023-02-17T06:13:59;4.30;99.90
22145;DHT22;11238;48.730;11.566;2023-02-17T06:16:25;4.30;99.90
22145;DHT22;11238;48.730;11.566;2023-02-17T06:18:51;4.30;99.90
22145;DHT22;11238;48.730;11.566;2023-02-17T06:21:17;4.30;99.90
22145;DHT22;11238;48.730;11.566;2023-02-17T06:23:43;4.40;99.90
22145;DHT22;11238;48.730;11.566;2023-02-17T06:26:09;4.40;99.90
22145;DHT22;11238;48.730;11.566;2023-02-17T06:28:34;4.50;99.90
22145;DHT22;11238;48.730;11.566;2023-02-17T06:31:00;4.50;99.90
22145;DHT22;11238;48.730;11.566;2023-02-17T06:33:26;4.50;99.90
22145;DHT22;11238;48.730;11.566;2023-02-17T06:36:11;4.60;99.90
22145;DHT22;11238;48.730;11.566;2023-02-17T06:38:37;4.70;99.90
22145;DHT22;11238;48.730;11.566;2023-02-17T06:41:03;5.10;99.90
22145;DHT22;11238;48.730;11.566;2023-02-17T06:43:29;5.40;99.90
22145;DHT22;11238;48.730;11.566;2023-02-17T06:45:55;5.60;99.90
22145;DHT22;11238;48.730;11.566;2023-02-17T06:48:21;5.80;99.90
22145;DHT22;11238;48.730;11.566;2023-02-17T06:50:48;6.00;99.90
22145;DHT22;11238;48.730;11.566;2023-02-17T06:53:14;6.20;99.90
22145;DHT22;11238;48.730;11.566;2023-02-17T06:55:42;6.60;99.90
22145;DHT22;11238;48.730;11.566;2023-02-17T06:58:09;6.90;99.90
22145;DHT22;11238;48.730;11.566;2023-02-17T07:00:35;7.10;99.90
22145;DHT22;11238;48.730;11.566;2023-02-17T07:03:00;7.10;99.90
22145;DHT22;11238;48.730;11.566;2023-02-17T07:05:27;7.20;99.90
22145;DHT22;11238;48.730;11.566;2023-02-17T07:07:56;7.50;99.90
22145;DHT22;11238;48.730;11.566;2023-02-17T07:10:22;7.70;99.90
22145;DHT22;11238;48.730;11.566;2023-02-17T07:12:48;7.70;99.90
22145;DHT22;11238;48.730;11.566;2023-02-17T07:15:14;7.80;99.90
22145;DHT22;11238;48.730;11.566;2023-02-17T07:17:39;7.80;99.90
22145;DHT22;11238;48.730;11.566;2023-02-17T07:20:06;7.90;99.90
22145;DHT22;11238;48.730;11.566;2023-02-17T07:22:43;7.90;99.90
22145;DHT22;11238;48.730;11.566;2023-02-17T07:25:09;7.90;99.90
22145;DHT22;11238;48.730;11.566;2023-02-17T07:27:35;8.00;99.90
22145;DHT22;11238;48.730;11.566;2023-02-17T07:30:02;8.10;99.90
22145;DHT22;11238;48.730;11.566;2023-02-17T07:32:31;8.10;99.90
22145;DHT22;11238;48.730;11.566;2023-02-17T07:35:18;8.20;99.90
22145;DHT22;11238;48.730;11.566;2023-02-17T07:37:44;8.40;99.90
22145;DHT22;11238;48.730;11.566;2023-02-17T07:40:10;8.50;99.90
22145;DHT22;11238;48.730;11.566;2023-02-17T07:42:37;8.60;99.90
22145;DHT22;11238;48.730;11.566;2023-02-17T07:45:03;8.60;99.90
22145;DHT22;11238;48.730;11.566;2023-02-17T07:47:31;8.80;99.90
22145;DHT22;11238;48.730;11.566;2023-02-17T07:50:00;8.80;99.90
22145;DHT22;11238;48.730;11.566;2023-02-17T07:52:25;8.80;99.90
22145;DHT22;11238;48.730;11.566;2023-02-17T07:54:51;8.80;99.90
22145;DHT22;11238;48.730;11.566;2023-02-17T07:57:18;8.90;99.90
22145;DHT22;11238;48.730;11.566;2023-02-17T07:59:45;8.90;99.90
22145;DHT22;11238;48.730;11.566;2023-02-17T08:02:13;9.00;99.90
22145;DHT22;11238;48.730;11.566;2023-02-17T08:04:39;9.20;99.90
22145;DHT22;11238;48.730;11.566;2023-02-17T08:07:07;9.30;99.90
22145;DHT22;11238;48.730;11.566;2023-02-17T08:09:33;9.40;99.90
22145;DHT22;11238;48.730;11.566;2023-02-17T08:12:21;9.50;99.90
22145;DHT22;11238;48.730;11.566;2023-02-17T08:15:08;9.50;99.90
22145;DHT22;11238;48.730;11.566;2023-02-17T08:17:34;9.50;99.90
22145;DHT22;11238;48.730;11.566;2023-02-17T08:19:59;9.50;99.90
22145;DHT22;11238;48.730;11.566;2023-02-17T08:22:25;9.50;99.90
22145;DHT22;11238;48.730;11.566;2023-02-17T08:24:52;9.50;99.90
22145;DHT22;11238;48.730;11.566;2023-02-17T08:27:18;9.40;99.90
22145;DHT22;11238;48.730;11.566;2023-02-17T08:30:06;9.50;99.90
22145;DHT22;11238;48.730;11.566;2023-02-17T08:32:44;9.50;99.90
22145;DHT22;11238;48.730;11.566;2023-02-17T08:35:19;9.70;99.90
22145;DHT22;11238;48.730;11.566;2023-02-17T08:37:50;9.90;99.90
22145;DHT22;11238;48.730;11.566;2023-02-17T08:40:17;10.10;99.90
22145;DHT22;11238;48.730;11.566;2023-02-17T08:42:43;10.20;99.90
22145;DHT22;11238;48.730;11.566;2023-02-17T08:45:27;10.20;99.90
22145;DHT22;11238;48.730;11.566;2023-02-17T08:47:53;10.20;99.90
22145;DHT22;11238;48.730;11.566;2023-02-17T08:50:19;10.20;99.90
22145;DHT22;11238;48.730;11.566;2023-02-17T08:52:45;10.20;99.90
22145;DHT22;11238;48.730;11.566;2023-02-17T08:55:12;10.20;99.90
22145;DHT22;11238;48.730;11.566;2023-02-17T08:57:47;10.30;99.90
22145;DHT22;11238;48.730;11.566;2023-02-17T09:00:21;10.30;99.90
22145;DHT22;11238;48.730;11.566;2023-02-17T09:02:56;10.30;99.90
22145;DHT22;11238;48.730;11.566;2023-02-17T09:05:24;10.50;99.90
22145;DHT22;11238;48.730;11.566;2023-02-17T09:07:50;10.50;99.90
22145;DHT22;11238;48.730;11.566;2023-02-17T09:10:16;10.60;99.90
22145;DHT22;11238;48.730;11.566;2023-02-17T09:12:41;10.70;99.90
22145;DHT22;11238;48.730;11.566;2023-02-17T09:15:08;10.80;99.90
22145;DHT22;11238;48.730;11.566;2023-02-17T09:17:39;10.90;99.90
22145;DHT22;11238;48.730;11.566;2023-02-17T09:20:06;11.00;99.90
22145;DHT22;11238;48.730;11.566;2023-02-17T09:22:33;11.20;99.90
22145;DHT22;11238;48.730;11.566;2023-02-17T09:24:59;11.20;99.90
22145;DHT22;11238;48.730;11.566;2023-02-17T09:27:46;11.30;99.90
22145;DHT22;11238;48.730;11.566;2023-02-17T09:30:13;11.40;99.40
22145;DHT22;11238;48.730;11.566;2023-02-17T09:32:42;11.40;99.40
22145;DHT22;11238;48.730;11.566;2023-02-17T09:35:14;11.50;99.20
22145;DHT22;11238;48.730;11.566;2023-02-17T09:37:40;11.50;99.30
22145;DHT22;11238;48.730;11.566;2023-02-17T09:40:13;11.50;99.20
22145;DHT22;11238;48.730;11.566;2023-02-17T09:42:40;11.50;98.60
22145;DHT22;11238;48.730;11.566;2023-02-17T09:45:27;11.50;99.90
22145;DHT22;11238;48.730;11.566;2023-02-17T09:47:57;11.50;99.60
22145;DHT22;11238;48.730;11.566;2023-02-17T09:53:07;11.80;98.70
22145;DHT22;11238;48.730;11.566;2023-02-17T09:55:58;11.90;99.10
22145;DHT22;11238;48.730;11.566;2023-02-17T09:58:53;12.10;98.40
22145;DHT22;11238;48.730;11.566;2023-02-17T10:01:25;12.30;97.80
22145;DHT22;11238;48.730;11.566;2023-02-17T10:03:58;12.40;97.20
22145;DHT22;11238;48.730;11.566;2023-02-17T10:06:42;12.40;97.20
22145;DHT22;11238;48.730;11.566;2023-02-17T10:09:33;12.30;97.60
22145;DHT22;11238;48.730;11.566;2023-02-17T10:12:14;12.20;97.50
22145;DHT22;11238;48.730;11.566;2023-02-17T10:14:48;12.10;97.80
22145;DHT22;11238;48.730;11.566;2023-02-17T10:22:31;12.10;98.50
22145;DHT22;11238;48.730;11.566;2023-02-17T10:24:59;12.00;99.20
22145;DHT22;11238;48.730;11.566;2023-02-17T10:27:54;12.00;99.10
22145;DHT22;11238;48.730;11.566;2023-02-17T10:31:06;12.00;99.80
22145;DHT22;11238;48.730;11.566;2023-02-17T10:34:15;12.10;99.00
22145;DHT22;11238;48.730;11.566;2023-02-17T10:36:58;12.10;98.90
22145;DHT22;11238;48.730;11.566;2023-02-17T10:39:34;12.10;99.10
22145;DHT22;11238;48.730;11.566;2023-02-17T10:42:33;12.20;98.70
22145;DHT22;11238;48.730;11.566;2023-02-17T10:45:40;12.20;99.20
22145;DHT22;11238;48.730;11.566;2023-02-17T10:48:11;12.30;99.00
22145;DHT22;11238;48.730;11.566;2023-02-17T10:50:41;12.30;99.40
22145;DHT22;11238;48.730;11.566;2023-02-17T10:53:18;12.40;99.40
22145;DHT22;11238;48.730;11.566;2023-02-17T10:58:47;12.40;99.50
22145;DHT22;11238;48.730;11.566;2023-02-17T11:01:16;12.50;99.30
22145;DHT22;11238;48.730;11.566;2023-02-17T11:03:42;12.50;99.60
22145;DHT22;11238;48.730;11.566;2023-02-17T11:06:21;12.50;99.90
22145;DHT22;11238;48.730;11.566;2023-02-17T11:12:40;12.50;99.50
22145;DHT22;11238;48.730;11.566;2023-02-17T11:15:16;12.50;99.90
22145;DHT22;11238;48.730;11.566;2023-02-17T11:17:43;12.50;99.90
22145;DHT22;11238;48.730;11.566;2023-02-17T11:22:41;12.50;99.90
22145;DHT22;11238;48.730;11.566;2023-02-17T11:27:56;12.30;99.90
22145;DHT22;11238;48.730;11.566;2023-02-17T11:30:49;12.20;99.90
22145;DHT22;11238;48.730;11.566;2023-02-17T11:33:21;12.10;99.90
22145;DHT22;11238;48.730;11.566;2023-02-17T11:35:50;12.00;99.90
22145;DHT22;11238;48.730;11.566;2023-02-17T11:38:20;12.00;99.90
22145;DHT22;11238;48.730;11.566;2023-02-17T11:41:04;12.10;99.90
22145;DHT22;11238;48.730;11.566;2023-02-17T11:43:32;12.10;99.90
22145;DHT22;11238;48.730;11.566;2023-02-17T11:46:05;12.10;99.90
22145;DHT22;11238;48.730;11.566;2023-02-17T11:54:23;12.40;99.90
22145;DHT22;11238;48.730;11.566;2023-02-17T11:57:16;12.40;99.90
22145;DHT22;11238;48.730;11.566;2023-02-17T12:03:17;12.50;99.90
22145;DHT22;11238;48.730;11.566;2023-02-17T12:06:00;12.50;99.90
22145;DHT22;11238;48.730;11.566;2023-02-17T12:12:04;12.60;99.90
22145;DHT22;11238;48.730;11.566;2023-02-17T12:17:20;12.60;99.90
22145;DHT22;11238;48.730;11.566;2023-02-17T12:25:08;12.80;99.90
22145;DHT22;11238;48.730;11.566;2023-02-17T12:27:53;12.90;99.90
22145;DHT22;11238;48.730;11.566;2023-02-17T12:30:55;12.80;99.90
22145;DHT22;11238;48.730;11.566;2023-02-17T12:33:55;12.90;99.90
22145;DHT22;11238;48.730;11.566;2023-02-17T12:36:27;12.90;99.90
22145;DHT22;11238;48.730;11.566;2023-02-17T12:38:57;13.00;99.90
22145;DHT22;11238;48.730;11.566;2023-02-17T12:41:33;13.00;99.90
22145;DHT22;11238;48.730;11.566;2023-02-17T12:44:13;12.90;99.90
22145;DHT22;11238;48.730;11.566;2023-02-17T12:46:46;12.90;99.90
22145;DHT22;11238;48.730;11.566;2023-02-17T12:51:59;12.80;99.90
22145;DHT22;11238;48.730;11.566;2023-02-17T13:00:28;12.70;99.90
22145;DHT22;11238;48.730;11.566;2023-02-17T13:03:16;12.60;99.90
22145;DHT22;11238;48.730;11.566;2023-02-17T13:06:01;12.60;99.90
22145;DHT22;11238;48.730;11.566;2023-02-17T13:08:48;12.60;99.90
22145;DHT22;11238;48.730;11.566;2023-02-17T13:11:28;12.50;99.90
22145;DHT22;11238;48.730;11.566;2023-02-17T13:13:55;12.40;99.90
22145;DHT22;11238;48.730;11.566;2023-02-17T13:16:21;12.30;99.90
22145;DHT22;11238;48.730;11.566;2023-02-17T13:18:50;12.10;99.90
22145;DHT22;11238;48.730;11.566;2023-02-17T13:21:31;12.00;99.90
22145;DHT22;11238;48.730;11.566;2023-02-17T13:26:55;11.50;99.90
22145;DHT22;11238;48.730;11.566;2023-02-17T13:29:41;11.50;99.90
22145;DHT22;11238;48.730;11.566;2023-02-17T13:32:10;11.50;99.90
22145;DHT22;11238;48.730;11.566;2023-02-17T13:34:41;11.50;99.90
22145;DHT22;11238;48.730;11.566;2023-02-17T13:42:49;11.70;99.90
22145;DHT22;11238;48.730;11.566;2023-02-17T13:45:30;11.70;99.90
22145;DHT22;11238;48.730;11.566;2023-02-17T13:51:04;11.70;99.90
22145;DHT22;11238;48.730;11.566;2023-02-17T13:53:33;11.70;99.90
22145;DHT22;11238;48.730;11.566;2023-02-17T13:56:09;11.60;99.90
22145;DHT22;11238;48.730;11.566;2023-02-17T13:58:40;11.50;99.90
22145;DHT22;11238;48.730;11.566;2023-02-17T14:01:21;11.50;99.90
22145;DHT22;11238;48.730;11.566;2023-02-17T14:03:52;11.40;99.90
22145;DHT22;11238;48.730;11.566;2023-02-17T14:06:31;11.40;99.90
22145;DHT22;11238;48.730;11.566;2023-02-17T14:08:58;11.40;99.90
22145;DHT22;11238;48.730;11.566;2023-02-17T14:11:26;11.40;99.90
22145;DHT22;11238;48.730;11.566;2023-02-17T14:13:54;11.30;99.90
22145;DHT22;11238;48.730;11.566;2023-02-17T14:16:42;11.40;99.90
22145;DHT22;11238;48.730;11.566;2023-02-17T14:19:16;11.40;99.90
22145;DHT22;11238;48.730;11.566;2023-02-17T14:21:45;11.40;99.90
22145;DHT22;11238;48.730;11.566;2023-02-17T14:24:33;11.40;99.90
22145;DHT22;11238;48.730;11.566;2023-02-17T14:27:05;11.50;99.90
22145;DHT22;11238;48.730;11.566;2023-02-17T14:29:47;11.40;99.90
22145;DHT22;11238;48.730;11.566;2023-02-17T14:32:36;11.50;99.90
22145;DHT22;11238;48.730;11.566;2023-02-17T14:35:22;11.60;99.90
22145;DHT22;11238;48.730;11.566;2023-02-17T14:37:48;11.60;99.90
22145;DHT22;11238;48.730;11.566;2023-02-17T14:40:20;11.60;99.90
22145;DHT22;11238;48.730;11.566;2023-02-17T14:43:09;11.60;99.90
22145;DHT22;11238;48.730;11.566;2023-02-17T14:45:35;11.70;99.90
22145;DHT22;11238;48.730;11.566;2023-02-17T14:48:01;11.70;99.90
22145;DHT22;11238;48.730;11.566;2023-02-17T14:50:27;11.70;99.90
22145;DHT22;11238;48.730;11.566;2023-02-17T14:52:52;11.70;99.90
22145;DHT22;11238;48.730;11.566;2023-02-17T14:55:31;11.80;99.90
22145;DHT22;11238;48.730;11.566;2023-02-17T14:57:59;11.80;99.90
22145;DHT22;11238;48.730;11.566;2023-02-17T15:00:25;11.90;99.90
22145;DHT22;11238;48.730;11.566;2023-02-17T15:02:51;12.00;99.90
22145;DHT22;11238;48.730;11.566;2023-02-17T15:05:17;12.10;99.90
22145;DHT22;11238;48.730;11.566;2023-02-17T15:07:44;12.10;99.90
22145;DHT22;11238;48.730;11.566;2023-02-17T15:10:27;12.20;99.90
22145;DHT22;11238;48.730;11.566;2023-02-17T15:12:54;12.20;99.90
22145;DHT22;11238;48.730;11.566;2023-02-17T15:15:20;12.20;99.90
22145;DHT22;11238;48.730;11.566;2023-02-17T15:17:46;12.20;99.90
22145;DHT22;11238;48.730;11.566;2023-02-17T15:20:13;12.30;99.90
22145;DHT22;11238;48.730;11.566;2023-02-17T15:22:40;12.30;99.90
22145;DHT22;11238;48.730;11.566;2023-02-17T15:25:17;12.20;99.90
22145;DHT22;11238;48.730;11.566;2023-02-17T15:27:45;12.30;99.90
22145;DHT22;11238;48.730;11.566;2023-02-17T15:30:16;12.20;99.90
22145;DHT22;11238;48.730;11.566;2023-02-17T15:33:11;12.20;99.90
22145;DHT22;11238;48.730;11.566;2023-02-17T15:35:39;12.20;99.90
22145;DHT22;11238;48.730;11.566;2023-02-17T15:38:05;12.20;99.90
22145;DHT22;11238;48.730;11.566;2023-02-17T15:40:32;12.20;99.90
22145;DHT22;11238;48.730;11.566;2023-02-17T15:43:21;12.20;99.90
22145;DHT22;11238;48.730;11.566;2023-02-17T15:45:48;12.20;99.90
22145;DHT22;11238;48.730;11.566;2023-02-17T15:48:20;12.30;99.90
22145;DHT22;11238;48.730;11.566;2023-02-17T15:50:47;12.20;99.90
22145;DHT22;11238;48.730;11.566;2023-02-17T15:53:13;12.20;99.90
22145;DHT22;11238;48.730;11.566;2023-02-17T15:55:39;12.10;99.90
22145;DHT22;11238;48.730;11.566;2023-02-17T15:58:05;12.20;99.90
22145;DHT22;11238;48.730;11.566;2023-02-17T16:00:35;12.30;99.90
22145;DHT22;11238;48.730;11.566;2023-02-17T16:03:01;12.30;99.90
22145;DHT22;11238;48.730;11.566;2023-02-17T16:05:28;12.30;99.90
22145;DHT22;11238;48.730;11.566;2023-02-17T16:07:55;12.30;99.90
22145;DHT22;11238;48.730;11.566;2023-02-17T16:10:24;12.20;99.90
22145;DHT22;11238;48.730;11.566;2023-02-17T16:12:56;12.30;99.90
22145;DHT22;11238;48.730;11.566;2023-02-17T16:15:23;12.30;99.90
22145;DHT22;11238;48.730;11.566;2023-02-17T16:17:50;12.30;99.90
22145;DHT22;11238;48.730;11.566;2023-02-17T16:22:43;12.30;99.90
22145;DHT22;11238;48.730;11.566;2023-02-17T16:25:10;12.30;99.90
22145;DHT22;11238;48.730;11.566;2023-02-17T16:27:37;12.30;99.90
22145;DHT22;11238;48.730;11.566;2023-02-17T16:32:43;12.10;99.90
22145;DHT22;11238;48.730;11.566;2023-02-17T16:35:14;12.00;99.90
22145;DHT22;11238;48.730;11.566;2023-02-17T16:37:41;11.90;99.90
22145;DHT22;11238;48.730;11.566;2023-02-17T16:40:17;11.90;99.90
22145;DHT22;11238;48.730;11.566;2023-02-17T16:42:43;11.90;99.90
22145;DHT22;11238;48.730;11.566;2023-02-17T16:45:31;11.90;99.90
22145;DHT22;11238;48.730;11.566;2023-02-17T16:47:59;11.80;99.90
22145;DHT22;11238;48.730;11.566;2023-02-17T16:50:28;11.80;99.90
22145;DHT22;11238;48.730;11.566;2023-02-17T16:52:57;11.80;99.90
22145;DHT22;11238;48.730;11.566;2023-02-17T16:55:27;11.80;99.90
22145;DHT22;11238;48.730;11.566;2023-02-17T16:57:54;11.80;99.90
22145;DHT22;11238;48.730;11.566;2023-02-17T17:00:22;11.80;99.90
22145;DHT22;11238;48.730;11.566;2023-02-17T17:02:49;11.70;99.90
22145;DHT22;11238;48.730;11.566;2023-02-17T17:05:16;11.70;99.90
22145;DHT22;11238;48.730;11.566;2023-02-17T17:07:43;11.70;99.90
22145;DHT22;11238;48.730;11.566;2023-02-17T17:10:19;11.70;99.90
22145;DHT22;11238;48.730;11.566;2023-02-17T17:12:45;11.70;99.90
22145;DHT22;11238;48.730;11.566;2023-02-17T17:15:30;11.70;99.90
22145;DHT22;11238;48.730;11.566;2023-02-17T17:18:00;11.60;99.90
22145;DHT22;11238;48.730;11.566;2023-02-17T17:20:45;11.70;99.90
22145;DHT22;11238;48.730;11.566;2023-02-17T17:23:13;11.60;99.90